sensor_id;sensor_type;location;lat;lon;timestamp;P1;P2;P0
75960;PMS7003;64644;48.914;2.254;2024-03-08T00:00:12;38.50;34.50;20.50
75960;PMS7003;64644;48.914;2.254;2024-03-08T00:02:43;38.25;36.50;23.50
75960;PMS7003;64644;48.914;2.254;2024-03-08T00:05:10;43.75;41.50;25.00
75960;PMS7003;64644;48.914;2.254;2024-03-08T00:07:35;40.00;39.00;23.00
75960;PMS7003;64644;48.914;2.254;2024-03-08T00:10:02;47.50;41.75;24.00
75960;PMS7003;64644;48.914;2.254;2024-03-08T00:12:28;35.75;34.25;19.25
75960;PMS7003;64644;48.914;2.254;2024-03-08T00:14:53;42.50;40.50;21.00
75960;PMS7003;64644;48.914;2.254;2024-03-08T00:17:19;39.75;36.00;24.25
75960;PMS7003;64644;48.914;2.254;2024-03-08T00:19:47;42.25;33.75;21.00
75960;PMS7003;64644;48.914;2.254;2024-03-08T00:22:14;45.00;38.00;22.00
75960;PMS7003;64644;48.914;2.254;2024-03-08T00:24:40;39.00;36.50;24.25
75960;PMS7003;64644;48.914;2.254;2024-03-08T00:27:06;40.00;37.00;23.75
75960;PMS7003;64644;48.914;2.254;2024-03-08T00:29:31;39.00;33.75;22.00
75960;PMS7003;64644;48.914;2.254;2024-03-08T00:31:56;49.75;41.00;23.50
75960;PMS7003;64644;48.914;2.254;2024-03-08T00:34:22;40.50;36.75;23.00
75960;PMS7003;64644;48.914;2.254;2024-03-08T00:36:48;37.00;35.00;23.25
75960;PMS7003;64644;48.914;2.254;2024-03-08T00:39:14;41.00;35.25;18.75
75960;PMS7003;64644;48.914;2.254;2024-03-08T00:41:39;51.00;37.75;22.75
75960;PMS7003;64644;48.914;2.254;2024-03-08T00:44:04;39.33;37.33;22.33
75960;PMS7003;64644;48.914;2.254;2024-03-08T00:46:30;38.50;33.75;22.75
75960;PMS7003;64644;48.914;2.254;2024-03-08T00:48:56;42.75;38.75;22.75
75960;PMS7003;64644;48.914;2.254;2024-03-08T00:51:22;43.75;36.75;23.25
75960;PMS7003;64644;48.914;2.254;2024-03-08T00:53:47;40.75;36.50;20.75
75960;PMS7003;64644;48.914;2.254;2024-03-08T00:56:12;28.00;24.25;20.50
75960;PMS7003;64644;48.914;2.254;2024-03-08T00:58:38;49.75;40.50;21.50
75960;PMS7003;64644;48.914;2.254;2024-03-08T01:01:03;40.75;37.50;23.00
75960;PMS7003;64644;48.914;2.254;2024-03-08T01:03:29;44.00;40.25;26.50
75960;PMS7003;64644;48.914;2.254;2024-03-08T01:05:56;44.00;38.50;21.75
75960;PMS7003;64644;48.914;2.254;2024-03-08T01:08:22;42.50;36.50;23.00
75960;PMS7003;64644;48.914;2.254;2024-03-08T01:11:04;49.25;39.50;26.00
75960;PMS7003;64644;48.914;2.254;2024-03-08T01:13:30;39.75;37.50;24.00
75960;PMS7003;64644;48.914;2.254;2024-03-08T01:15:55;50.50;41.00;26.00
75960;PMS7003;64644;48.914;2.254;2024-03-08T01:18:21;45.00;37.67;20.67
75960;PMS7003;64644;48.914;2.254;2024-03-08T01:20:46;45.75;37.75;23.25
75960;PMS7003;64644;48.914;2.254;2024-03-08T01:23:12;44.50;40.50;26.00
75960;PMS7003;64644;48.914;2.254;2024-03-08T01:25:37;35.00;28.50;18.75
75960;PMS7003;64644;48.914;2.254;2024-03-08T01:28:02;46.50;39.50;27.25
75960;PMS7003;64644;48.914;2.254;2024-03-08T01:30:28;45.25;40.25;24.25
75960;PMS7003;64644;48.914;2.254;2024-03-08T01:32:53;44.00;38.75;23.25
75960;PMS7003;64644;48.914;2.254;2024-03-08T01:35:19;33.25;31.50;16.00
75960;PMS7003;64644;48.914;2.254;2024-03-08T01:37:46;41.00;36.50;22.25
75960;PMS7003;64644;48.914;2.254;2024-03-08T01:40:12;51.00;41.00;25.00
75960;PMS7003;64644;48.914;2.254;2024-03-08T01:42:39;40.00;33.25;21.50
75960;PMS7003;64644;48.914;2.254;2024-03-08T01:45:07;53.50;39.00;23.50
75960;PMS7003;64644;48.914;2.254;2024-03-08T01:47:33;40.25;34.50;20.25
75960;PMS7003;64644;48.914;2.254;2024-03-08T01:49:59;45.75;39.50;28.00
75960;PMS7003;64644;48.914;2.254;2024-03-08T01:52:28;41.00;37.25;23.25
75960;PMS7003;64644;48.914;2.254;2024-03-08T01:54:56;44.50;36.50;22.00
75960;PMS7003;64644;48.914;2.254;2024-03-08T01:57:25;48.00;41.25;24.75
75960;PMS7003;64644;48.914;2.254;2024-03-08T01:59:51;45.25;40.25;26.75
75960;PMS7003;64644;48.914;2.254;2024-03-08T02:02:19;40.75;39.00;22.75
75960;PMS7003;64644;48.914;2.254;2024-03-08T02:04:46;52.75;43.50;26.25
75960;PMS7003;64644;48.914;2.254;2024-03-08T02:07:11;43.25;35.75;22.00
75960;PMS7003;64644;48.914;2.254;2024-03-08T02:09:36;44.00;41.50;27.75
75960;PMS7003;64644;48.914;2.254;2024-03-08T02:12:02;36.50;32.00;22.50
75960;PMS7003;64644;48.914;2.254;2024-03-08T02:14:27;43.50;39.75;25.00
75960;PMS7003;64644;48.914;2.254;2024-03-08T02:16:53;44.75;39.25;27.50
75960;PMS7003;64644;48.914;2.254;2024-03-08T02:19:19;49.00;40.75;22.50
75960;PMS7003;64644;48.914;2.254;2024-03-08T02:21:45;44.50;41.00;25.75
75960;PMS7003;64644;48.914;2.254;2024-03-08T02:24:12;52.25;42.25;21.75
75960;PMS7003;64644;48.914;2.254;2024-03-08T02:26:38;38.25;34.00;18.75
75960;PMS7003;64644;48.914;2.254;2024-03-08T02:29:03;53.25;41.50;25.00
75960;PMS7003;64644;48.914;2.254;2024-03-08T02:31:29;37.75;35.50;21.25
75960;PMS7003;64644;48.914;2.254;2024-03-08T02:33:54;39.75;37.75;25.75
75960;PMS7003;64644;48.914;2.254;2024-03-08T02:36:20;48.00;39.00;23.50
75960;PMS7003;64644;48.914;2.254;2024-03-08T02:38:46;47.25;41.00;24.75
75960;PMS7003;64644;48.914;2.254;2024-03-08T02:41:11;42.00;38.75;21.00
75960;PMS7003;64644;48.914;2.254;2024-03-08T02:43:37;49.50;40.00;25.00
75960;PMS7003;64644;48.914;2.254;2024-03-08T02:46:03;56.50;43.00;24.50
75960;PMS7003;64644;48.914;2.254;2024-03-08T02:48:30;36.25;31.50;18.00
75960;PMS7003;64644;48.914;2.254;2024-03-08T02:50:55;46.50;38.75;24.25
75960;PMS7003;64644;48.914;2.254;2024-03-08T02:53:21;44.25;36.50;24.00
75960;PMS7003;64644;48.914;2.254;2024-03-08T02:55:47;46.75;41.00;26.00
75960;PMS7003;64644;48.914;2.254;2024-03-08T02:58:12;41.25;37.50;23.25
75960;PMS7003;64644;48.914;2.254;2024-03-08T03:00:39;36.00;31.50;20.00
75960;PMS7003;64644;48.914;2.254;2024-03-08T03:03:05;54.25;45.50;26.75
75960;PMS7003;64644;48.914;2.254;2024-03-08T03:05:31;37.75;35.75;20.00
75960;PMS7003;64644;48.914;2.254;2024-03-08T03:07:57;47.50;36.50;23.00
75960;PMS7003;64644;48.914;2.254;2024-03-08T03:10:23;44.50;36.50;22.00
75960;PMS7003;64644;48.914;2.254;2024-03-08T03:12:49;40.75;37.25;23.75
75960;PMS7003;64644;48.914;2.254;2024-03-08T03:15:14;41.50;34.25;21.50
75960;PMS7003;64644;48.914;2.254;2024-03-08T03:17:45;43.00;36.50;22.25
75960;PMS7003;64644;48.914;2.254;2024-03-08T03:20:15;47.00;39.25;24.75
75960;PMS7003;64644;48.914;2.254;2024-03-08T03:22:47;41.50;33.25;19.25
75960;PMS7003;64644;48.914;2.254;2024-03-08T03:25:16;51.75;39.50;23.25
75960;PMS7003;64644;48.914;2.254;2024-03-08T03:27:48;51.00;42.00;25.00
75960;PMS7003;64644;48.914;2.254;2024-03-08T03:30:14;47.75;40.25;23.75
75960;PMS7003;64644;48.914;2.254;2024-03-08T03:32:46;45.00;35.75;21.75
75960;PMS7003;64644;48.914;2.254;2024-03-08T03:35:15;47.75;42.50;26.00
75960;PMS7003;64644;48.914;2.254;2024-03-08T03:37:45;42.25;37.50;24.50
75960;PMS7003;64644;48.914;2.254;2024-03-08T03:40:26;37.75;34.25;23.00
75960;PMS7003;64644;48.914;2.254;2024-03-08T03:42:52;46.25;37.75;24.50
75960;PMS7003;64644;48.914;2.254;2024-03-08T03:45:17;41.33;34.33;22.00
75960;PMS7003;64644;48.914;2.254;2024-03-08T03:47:44;41.00;39.75;24.50
75960;PMS7003;64644;48.914;2.254;2024-03-08T03:50:10;35.50;34.25;22.00
75960;PMS7003;64644;48.914;2.254;2024-03-08T03:52:36;35.75;34.75;21.50
75960;PMS7003;64644;48.914;2.254;2024-03-08T03:55:01;41.25;37.50;21.25
75960;PMS7003;64644;48.914;2.254;2024-03-08T03:57:26;42.75;39.75;24.00
75960;PMS7003;64644;48.914;2.254;2024-03-08T03:59:52;37.00;30.33;20.33
75960;PMS7003;64644;48.914;2.254;2024-03-08T04:02:17;41.50;39.00;21.25
75960;PMS7003;64644;48.914;2.254;2024-03-08T04:04:45;44.50;37.00;22.00
75960;PMS7003;64644;48.914;2.254;2024-03-08T04:07:10;47.25;38.00;22.00
75960;PMS7003;64644;48.914;2.254;2024-03-08T04:09:36;40.00;35.50;17.50
75960;PMS7003;64644;48.914;2.254;2024-03-08T04:12:01;47.75;42.75;22.50
75960;PMS7003;64644;48.914;2.254;2024-03-08T04:14:26;30.25;26.00;17.50
75960;PMS7003;64644;48.914;2.254;2024-03-08T04:16:52;39.67;35.33;23.67
75960;PMS7003;64644;48.914;2.254;2024-03-08T04:19:17;45.50;43.25;25.50
75960;PMS7003;64644;48.914;2.254;2024-03-08T04:21:44;38.50;36.25;22.00
75960;PMS7003;64644;48.914;2.254;2024-03-08T04:24:09;49.75;42.00;21.00
75960;PMS7003;64644;48.914;2.254;2024-03-08T04:26:35;45.75;40.50;23.00
75960;PMS7003;64644;48.914;2.254;2024-03-08T04:29:01;39.50;34.75;20.00
75960;PMS7003;64644;48.914;2.254;2024-03-08T04:31:26;39.25;33.75;23.00
75960;PMS7003;64644;48.914;2.254;2024-03-08T04:33:51;40.25;39.75;21.25
75960;PMS7003;64644;48.914;2.254;2024-03-08T04:36:17;41.50;35.25;23.75
75960;PMS7003;64644;48.914;2.254;2024-03-08T04:38:42;40.00;39.00;25.25
75960;PMS7003;64644;48.914;2.254;2024-03-08T04:41:08;43.00;36.25;20.00
75960;PMS7003;64644;48.914;2.254;2024-03-08T04:43:34;34.50;31.75;19.00
75960;PMS7003;64644;48.914;2.254;2024-03-08T04:45:59;53.75;43.00;24.25
75960;PMS7003;64644;48.914;2.254;2024-03-08T04:48:25;46.75;38.00;21.75
75960;PMS7003;64644;48.914;2.254;2024-03-08T04:50:53;51.00;42.75;25.50
75960;PMS7003;64644;48.914;2.254;2024-03-08T04:53:18;39.00;36.75;23.75
75960;PMS7003;64644;48.914;2.254;2024-03-08T04:55:44;43.50;39.50;23.75
75960;PMS7003;64644;48.914;2.254;2024-03-08T04:58:09;41.50;38.00;21.75
75960;PMS7003;64644;48.914;2.254;2024-03-08T05:00:35;52.50;43.50;26.00
75960;PMS7003;64644;48.914;2.254;2024-03-08T05:03:00;38.00;32.25;20.00
75960;PMS7003;64644;48.914;2.254;2024-03-08T05:05:25;47.50;39.75;22.00
75960;PMS7003;64644;48.914;2.254;2024-03-08T05:07:53;37.50;37.00;23.25
75960;PMS7003;64644;48.914;2.254;2024-03-08T05:10:18;37.75;34.25;20.00
75960;PMS7003;64644;48.914;2.254;2024-03-08T05:12:44;53.00;43.75;26.50
75960;PMS7003;64644;48.914;2.254;2024-03-08T05:15:09;41.50;33.50;21.25
75960;PMS7003;64644;48.914;2.254;2024-03-08T05:17:35;40.50;36.00;23.25
75960;PMS7003;64644;48.914;2.254;2024-03-08T05:20:00;42.00;36.25;22.25
75960;PMS7003;64644;48.914;2.254;2024-03-08T05:22:25;41.00;36.75;26.25
75960;PMS7003;64644;48.914;2.254;2024-03-08T05:24:51;53.00;42.25;23.25
75960;PMS7003;64644;48.914;2.254;2024-03-08T05:27:16;40.25;33.75;24.50
75960;PMS7003;64644;48.914;2.254;2024-03-08T05:29:42;52.75;38.00;22.00
75960;PMS7003;64644;48.914;2.254;2024-03-08T05:32:07;43.50;35.00;20.25
75960;PMS7003;64644;48.914;2.254;2024-03-08T05:34:32;42.75;39.00;23.25
75960;PMS7003;64644;48.914;2.254;2024-03-08T05:36:58;44.00;40.50;22.00
75960;PMS7003;64644;48.914;2.254;2024-03-08T05:39:23;38.00;26.00;17.50
75960;PMS7003;64644;48.914;2.254;2024-03-08T05:41:49;47.75;41.75;21.25
75960;PMS7003;64644;48.914;2.254;2024-03-08T05:44:15;35.50;34.50;17.75
75960;PMS7003;64644;48.914;2.254;2024-03-08T05:46:44;49.75;40.75;23.25
75960;PMS7003;64644;48.914;2.254;2024-03-08T05:49:09;47.00;41.25;25.50
75960;PMS7003;64644;48.914;2.254;2024-03-08T05:51:38;44.50;40.50;25.75
75960;PMS7003;64644;48.914;2.254;2024-03-08T05:54:05;44.50;39.00;26.00
75960;PMS7003;64644;48.914;2.254;2024-03-08T05:56:36;50.00;39.25;23.25
75960;PMS7003;64644;48.914;2.254;2024-03-08T05:59:02;42.50;39.25;23.75
75960;PMS7003;64644;48.914;2.254;2024-03-08T06:01:30;45.50;35.25;20.75
75960;PMS7003;64644;48.914;2.254;2024-03-08T06:03:56;45.75;38.00;22.75
75960;PMS7003;64644;48.914;2.254;2024-03-08T06:06:25;40.50;39.00;25.50
75960;PMS7003;64644;48.914;2.254;2024-03-08T06:08:51;37.25;35.50;21.75
75960;PMS7003;64644;48.914;2.254;2024-03-08T06:11:17;54.25;42.25;26.00
75960;PMS7003;64644;48.914;2.254;2024-03-08T06:13:44;43.00;36.00;22.75
75960;PMS7003;64644;48.914;2.254;2024-03-08T06:16:10;45.50;37.50;22.50
75960;PMS7003;64644;48.914;2.254;2024-03-08T06:18:35;48.50;40.75;23.75
75960;PMS7003;64644;48.914;2.254;2024-03-08T06:21:04;44.50;43.75;26.50
75960;PMS7003;64644;48.914;2.254;2024-03-08T06:23:31;39.50;39.50;26.00
75960;PMS7003;64644;48.914;2.254;2024-03-08T06:25:57;49.25;40.50;24.25
75960;PMS7003;64644;48.914;2.254;2024-03-08T06:28:22;49.25;39.75;28.50
75960;PMS7003;64644;48.914;2.254;2024-03-08T06:30:48;52.00;35.50;22.00
75960;PMS7003;64644;48.914;2.254;2024-03-08T06:33:13;41.33;39.33;23.00
75960;PMS7003;64644;48.914;2.254;2024-03-08T06:35:38;52.67;39.33;20.33
75960;PMS7003;64644;48.914;2.254;2024-03-08T06:38:04;48.67;42.33;24.67
75960;PMS7003;64644;48.914;2.254;2024-03-08T06:40:29;45.25;39.75;23.00
75960;PMS7003;64644;48.914;2.254;2024-03-08T06:42:55;46.00;39.33;21.33
75960;PMS7003;64644;48.914;2.254;2024-03-08T06:45:20;44.00;41.25;21.50
75960;PMS7003;64644;48.914;2.254;2024-03-08T06:47:46;49.50;38.75;22.25
75960;PMS7003;64644;48.914;2.254;2024-03-08T06:50:13;46.25;43.00;27.75
75960;PMS7003;64644;48.914;2.254;2024-03-08T06:52:40;44.75;40.75;25.25
75960;PMS7003;64644;48.914;2.254;2024-03-08T06:55:05;44.00;39.00;24.75
75960;PMS7003;64644;48.914;2.254;2024-03-08T06:57:31;42.00;38.75;27.25
75960;PMS7003;64644;48.914;2.254;2024-03-08T06:59:57;48.00;43.50;24.25
75960;PMS7003;64644;48.914;2.254;2024-03-08T07:02:22;38.75;34.75;23.00
75960;PMS7003;64644;48.914;2.254;2024-03-08T07:04:49;41.25;34.00;20.50
75960;PMS7003;64644;48.914;2.254;2024-03-08T07:07:15;46.75;36.00;23.00
75960;PMS7003;64644;48.914;2.254;2024-03-08T07:09:40;43.50;34.25;21.75
75960;PMS7003;64644;48.914;2.254;2024-03-08T07:12:07;37.50;36.25;23.50
75960;PMS7003;64644;48.914;2.254;2024-03-08T07:14:33;51.00;42.25;26.50
75960;PMS7003;64644;48.914;2.254;2024-03-08T07:16:58;40.25;36.75;24.75
75960;PMS7003;64644;48.914;2.254;2024-03-08T07:19:24;41.50;36.00;22.75
75960;PMS7003;64644;48.914;2.254;2024-03-08T07:21:49;55.00;44.33;27.33
75960;PMS7003;64644;48.914;2.254;2024-03-08T07:24:15;47.50;43.25;23.50
75960;PMS7003;64644;48.914;2.254;2024-03-08T07:26:40;48.00;38.25;23.75
75960;PMS7003;64644;48.914;2.254;2024-03-08T07:29:05;44.00;40.25;25.25
75960;PMS7003;64644;48.914;2.254;2024-03-08T07:31:30;54.75;43.75;26.00
75960;PMS7003;64644;48.914;2.254;2024-03-08T07:34:02;45.25;40.50;24.50
75960;PMS7003;64644;48.914;2.254;2024-03-08T07:36:28;55.25;43.00;24.50
75960;PMS7003;64644;48.914;2.254;2024-03-08T07:38:53;49.75;39.25;24.00
75960;PMS7003;64644;48.914;2.254;2024-03-08T07:41:19;42.00;36.25;21.75
75960;PMS7003;64644;48.914;2.254;2024-03-08T07:43:45;52.00;41.75;24.75
75960;PMS7003;64644;48.914;2.254;2024-03-08T07:46:10;46.75;43.25;26.50
75960;PMS7003;64644;48.914;2.254;2024-03-08T07:48:36;46.50;35.00;21.75
75960;PMS7003;64644;48.914;2.254;2024-03-08T07:51:05;48.00;39.50;26.50
75960;PMS7003;64644;48.914;2.254;2024-03-08T07:53:30;45.75;42.50;23.25
75960;PMS7003;64644;48.914;2.254;2024-03-08T07:55:56;45.50;41.50;25.00
75960;PMS7003;64644;48.914;2.254;2024-03-08T07:58:21;48.00;39.67;24.67
75960;PMS7003;64644;48.914;2.254;2024-03-08T08:00:46;45.75;42.50;27.75
75960;PMS7003;64644;48.914;2.254;2024-03-08T08:03:12;52.00;42.75;25.25
75960;PMS7003;64644;48.914;2.254;2024-03-08T08:05:37;37.00;34.75;21.75
75960;PMS7003;64644;48.914;2.254;2024-03-08T08:08:04;34.50;29.75;17.75
75960;PMS7003;64644;48.914;2.254;2024-03-08T08:10:31;55.50;44.25;27.75
75960;PMS7003;64644;48.914;2.254;2024-03-08T08:12:57;48.00;38.75;22.00
75960;PMS7003;64644;48.914;2.254;2024-03-08T08:15:23;41.50;38.75;21.00
75960;PMS7003;64644;48.914;2.254;2024-03-08T08:17:48;48.50;41.75;23.25
75960;PMS7003;64644;48.914;2.254;2024-03-08T08:20:14;42.25;39.00;24.00
75960;PMS7003;64644;48.914;2.254;2024-03-08T08:22:40;40.75;38.50;27.25
75960;PMS7003;64644;48.914;2.254;2024-03-08T08:25:06;46.00;40.50;26.75
75960;PMS7003;64644;48.914;2.254;2024-03-08T08:27:32;39.25;36.25;25.00
75960;PMS7003;64644;48.914;2.254;2024-03-08T08:29:58;50.50;44.25;26.75
75960;PMS7003;64644;48.914;2.254;2024-03-08T08:32:23;40.50;37.25;23.50
75960;PMS7003;64644;48.914;2.254;2024-03-08T08:34:48;43.50;41.25;25.75
75960;PMS7003;64644;48.914;2.254;2024-03-08T08:37:14;45.00;37.00;21.50
75960;PMS7003;64644;48.914;2.254;2024-03-08T08:39:40;48.25;43.00;24.50
75960;PMS7003;64644;48.914;2.254;2024-03-08T08:42:05;42.33;35.33;21.00
75960;PMS7003;64644;48.914;2.254;2024-03-08T08:44:34;40.75;34.75;21.25
75960;PMS7003;64644;48.914;2.254;2024-03-08T08:47:00;44.00;36.50;21.00
75960;PMS7003;64644;48.914;2.254;2024-03-08T08:49:25;37.00;30.50;21.00
75960;PMS7003;64644;48.914;2.254;2024-03-08T08:51:51;46.50;33.75;21.00
75960;PMS7003;64644;48.914;2.254;2024-03-08T08:54:16;38.25;30.75;19.50
75960;PMS7003;64644;48.914;2.254;2024-03-08T08:56:42;37.00;31.50;19.50
75960;PMS7003;64644;48.914;2.254;2024-03-08T08:59:12;38.00;32.50;19.75
75960;PMS7003;64644;48.914;2.254;2024-03-08T09:01:42;34.25;32.75;19.00
75960;PMS7003;64644;48.914;2.254;2024-03-08T09:04:07;40.50;33.75;21.25
75960;PMS7003;64644;48.914;2.254;2024-03-08T09:06:33;39.75;34.75;22.50
75960;PMS7003;64644;48.914;2.254;2024-03-08T09:08:58;35.25;32.50;21.25
75960;PMS7003;64644;48.914;2.254;2024-03-08T09:11:24;40.75;33.50;18.00
75960;PMS7003;64644;48.914;2.254;2024-03-08T09:13:50;41.75;33.00;20.50
75960;PMS7003;64644;48.914;2.254;2024-03-08T09:16:15;24.25;22.75;8.00
75960;PMS7003;64644;48.914;2.254;2024-03-08T09:18:41;39.00;32.00;19.25
75960;PMS7003;64644;48.914;2.254;2024-03-08T09:21:06;40.00;36.50;20.25
75960;PMS7003;64644;48.914;2.254;2024-03-08T09:23:34;39.00;32.00;20.50
75960;PMS7003;64644;48.914;2.254;2024-03-08T09:26:00;45.75;30.75;18.50
75960;PMS7003;64644;48.914;2.254;2024-03-08T09:28:26;30.75;26.75;19.00
75960;PMS7003;64644;48.914;2.254;2024-03-08T09:30:52;36.50;34.00;19.50
75960;PMS7003;64644;48.914;2.254;2024-03-08T09:33:17;36.67;29.00;19.67
75960;PMS7003;64644;48.914;2.254;2024-03-08T09:35:47;35.25;30.75;19.50
75960;PMS7003;64644;48.914;2.254;2024-03-08T09:38:13;33.25;29.00;19.25
75960;PMS7003;64644;48.914;2.254;2024-03-08T09:40:42;33.50;29.00;18.00
75960;PMS7003;64644;48.914;2.254;2024-03-08T09:43:09;34.50;31.75;20.50
75960;PMS7003;64644;48.914;2.254;2024-03-08T09:45:36;37.25;31.00;20.75
75960;PMS7003;64644;48.914;2.254;2024-03-08T09:48:05;43.00;34.00;20.00
75960;PMS7003;64644;48.914;2.254;2024-03-08T09:50:36;37.75;32.00;18.50
75960;PMS7003;64644;48.914;2.254;2024-03-08T09:53:01;35.00;32.00;18.25
75960;PMS7003;64644;48.914;2.254;2024-03-08T09:55:27;39.00;30.00;17.50
75960;PMS7003;64644;48.914;2.254;2024-03-08T09:57:59;36.75;28.50;17.25
75960;PMS7003;64644;48.914;2.254;2024-03-08T10:00:45;32.25;29.75;19.75
75960;PMS7003;64644;48.914;2.254;2024-03-08T10:03:11;31.00;29.00;17.75
75960;PMS7003;64644;48.914;2.254;2024-03-08T10:05:39;30.50;29.75;17.75
75960;PMS7003;64644;48.914;2.254;2024-03-08T10:08:05;40.00;29.75;17.00
75960;PMS7003;64644;48.914;2.254;2024-03-08T10:10:33;29.50;26.75;16.50
75960;PMS7003;64644;48.914;2.254;2024-03-08T10:12:59;34.00;30.50;18.50
75960;PMS7003;64644;48.914;2.254;2024-03-08T10:15:26;30.50;29.75;17.75
75960;PMS7003;64644;48.914;2.254;2024-03-08T10:17:55;27.50;23.50;12.50
75960;PMS7003;64644;48.914;2.254;2024-03-08T10:20:21;34.00;29.50;18.75
75960;PMS7003;64644;48.914;2.254;2024-03-08T10:22:46;26.00;23.67;15.33
75960;PMS7003;64644;48.914;2.254;2024-03-08T10:25:12;32.75;29.50;18.50
75960;PMS7003;64644;48.914;2.254;2024-03-08T10:27:38;29.25;26.50;16.75
75960;PMS7003;64644;48.914;2.254;2024-03-08T10:30:12;36.75;29.00;17.00
75960;PMS7003;64644;48.914;2.254;2024-03-08T10:32:41;23.25;21.25;14.25
75960;PMS7003;64644;48.914;2.254;2024-03-08T10:35:07;22.25;19.50;14.00
75960;PMS7003;64644;48.914;2.254;2024-03-08T10:37:33;20.25;16.00;10.50
75960;PMS7003;64644;48.914;2.254;2024-03-08T10:40:17;22.75;20.25;13.75
75960;PMS7003;64644;48.914;2.254;2024-03-08T10:42:51;26.50;20.75;13.25
75960;PMS7003;64644;48.914;2.254;2024-03-08T10:45:23;22.00;19.75;11.00
75960;PMS7003;64644;48.914;2.254;2024-03-08T10:48:43;22.25;22.25;14.00
75960;PMS7003;64644;48.914;2.254;2024-03-08T10:51:06;18.75;15.75;11.50
75960;PMS7003;64644;48.914;2.254;2024-03-08T10:53:33;23.75;21.00;14.50
75960;PMS7003;64644;48.914;2.254;2024-03-08T10:55:59;21.25;19.75;11.50
75960;PMS7003;64644;48.914;2.254;2024-03-08T11:00:55;29.75;22.75;14.00
75960;PMS7003;64644;48.914;2.254;2024-03-08T11:06:06;23.25;19.75;11.50
75960;PMS7003;64644;48.914;2.254;2024-03-08T11:08:33;23.25;19.75;11.50
75960;PMS7003;64644;48.914;2.254;2024-03-08T11:11:01;22.50;19.25;10.50
75960;PMS7003;64644;48.914;2.254;2024-03-08T11:13:33;17.25;17.00;10.50
75960;PMS7003;64644;48.914;2.254;2024-03-08T11:16:00;21.00;17.00;11.00
75960;PMS7003;64644;48.914;2.254;2024-03-08T11:18:26;19.00;18.00;11.00
75960;PMS7003;64644;48.914;2.254;2024-03-08T11:20:53;19.25;15.00;8.50
75960;PMS7003;64644;48.914;2.254;2024-03-08T11:23:22;18.00;15.25;10.00
75960;PMS7003;64644;48.914;2.254;2024-03-08T11:25:48;19.00;15.50;11.00
75960;PMS7003;64644;48.914;2.254;2024-03-08T11:28:21;16.00;15.75;11.00
75960;PMS7003;64644;48.914;2.254;2024-03-08T11:33:29;18.75;16.00;12.00
75960;PMS7003;64644;48.914;2.254;2024-03-08T11:36:41;15.75;15.50;11.00
75960;PMS7003;64644;48.914;2.254;2024-03-08T11:38:47;21.75;19.00;11.75
75960;PMS7003;64644;48.914;2.254;2024-03-08T11:41:23;15.00;12.25;10.00
75960;PMS7003;64644;48.914;2.254;2024-03-08T11:43:50;16.50;15.75;11.00
75960;PMS7003;64644;48.914;2.254;2024-03-08T11:46:30;19.25;15.50;11.00
75960;PMS7003;64644;48.914;2.254;2024-03-08T11:48:55;16.50;14.75;10.00
75960;PMS7003;64644;48.914;2.254;2024-03-08T11:51:21;21.00;18.25;11.50
75960;PMS7003;64644;48.914;2.254;2024-03-08T11:53:48;15.75;14.00;10.00
75960;PMS7003;64644;48.914;2.254;2024-03-08T11:56:15;20.00;17.00;12.00
75960;PMS7003;64644;48.914;2.254;2024-03-08T11:58:41;20.75;19.75;12.50
75960;PMS7003;64644;48.914;2.254;2024-03-08T12:01:07;17.00;16.25;10.00
75960;PMS7003;64644;48.914;2.254;2024-03-08T12:03:40;15.50;13.75;9.25
75960;PMS7003;64644;48.914;2.254;2024-03-08T12:06:07;17.00;16.25;11.25
75960;PMS7003;64644;48.914;2.254;2024-03-08T12:08:34;14.75;12.50;11.00
75960;PMS7003;64644;48.914;2.254;2024-03-08T12:11:00;17.00;15.75;10.75
75960;PMS7003;64644;48.914;2.254;2024-03-08T12:13:29;24.50;19.00;12.50
75960;PMS7003;64644;48.914;2.254;2024-03-08T12:15:57;17.00;14.25;11.00
75960;PMS7003;64644;48.914;2.254;2024-03-08T12:18:26;16.50;14.00;11.25
75960;PMS7003;64644;48.914;2.254;2024-03-08T12:21:03;22.75;17.75;11.75
75960;PMS7003;64644;48.914;2.254;2024-03-08T12:23:29;19.50;15.75;11.75
75960;PMS7003;64644;48.914;2.254;2024-03-08T12:25:54;19.50;17.75;12.75
75960;PMS7003;64644;48.914;2.254;2024-03-08T12:28:20;16.25;14.50;11.00
75960;PMS7003;64644;48.914;2.254;2024-03-08T12:30:47;21.00;17.00;11.50
75960;PMS7003;64644;48.914;2.254;2024-03-08T12:33:14;17.50;16.50;11.50
75960;PMS7003;64644;48.914;2.254;2024-03-08T12:35:39;16.50;13.75;9.25
75960;PMS7003;64644;48.914;2.254;2024-03-08T12:38:05;19.00;18.75;12.25
75960;PMS7003;64644;48.914;2.254;2024-03-08T12:40:33;19.50;17.50;11.75
75960;PMS7003;64644;48.914;2.254;2024-03-08T12:43:05;17.75;16.50;11.00
75960;PMS7003;64644;48.914;2.254;2024-03-08T12:45:31;17.00;14.00;9.50
75960;PMS7003;64644;48.914;2.254;2024-03-08T12:47:57;17.25;16.50;11.25
75960;PMS7003;64644;48.914;2.254;2024-03-08T12:50:24;18.50;14.00;12.00
75960;PMS7003;64644;48.914;2.254;2024-03-08T12:52:50;16.75;16.75;12.00
75960;PMS7003;64644;48.914;2.254;2024-03-08T12:55:17;14.75;14.75;10.75
75960;PMS7003;64644;48.914;2.254;2024-03-08T12:57:43;16.25;13.25;8.00
75960;PMS7003;64644;48.914;2.254;2024-03-08T13:00:09;17.75;13.50;10.00
75960;PMS7003;64644;48.914;2.254;2024-03-08T13:02:48;18.25;12.00;7.00
75960;PMS7003;64644;48.914;2.254;2024-03-08T13:05:16;21.50;17.75;11.50
75960;PMS7003;64644;48.914;2.254;2024-03-08T13:07:41;17.75;15.50;11.00
75960;PMS7003;64644;48.914;2.254;2024-03-08T13:10:11;12.25;12.25;9.75
75960;PMS7003;64644;48.914;2.254;2024-03-08T13:12:42;14.75;14.50;11.50
75960;PMS7003;64644;48.914;2.254;2024-03-08T13:15:08;13.00;12.25;9.75
75960;PMS7003;64644;48.914;2.254;2024-03-08T13:17:39;14.25;13.00;9.25
75960;PMS7003;64644;48.914;2.254;2024-03-08T13:20:06;13.00;12.25;6.50
75960;PMS7003;64644;48.914;2.254;2024-03-08T13:22:32;18.50;15.25;12.00
75960;PMS7003;64644;48.914;2.254;2024-03-08T13:24:58;16.25;14.25;11.00
75960;PMS7003;64644;48.914;2.254;2024-03-08T13:27:25;12.25;11.25;9.00
75960;PMS7003;64644;48.914;2.254;2024-03-08T13:29:52;15.00;15.00;9.50
75960;PMS7003;64644;48.914;2.254;2024-03-08T13:32:17;17.00;14.00;11.00
75960;PMS7003;64644;48.914;2.254;2024-03-08T13:34:45;13.25;13.25;10.00
75960;PMS7003;64644;48.914;2.254;2024-03-08T13:37:12;14.00;13.50;9.25
75960;PMS7003;64644;48.914;2.254;2024-03-08T13:39:40;15.75;13.25;8.75
75960;PMS7003;64644;48.914;2.254;2024-03-08T13:42:08;12.25;10.25;6.50
75960;PMS7003;64644;48.914;2.254;2024-03-08T13:44:44;14.00;14.00;9.50
75960;PMS7003;64644;48.914;2.254;2024-03-08T13:47:15;12.00;11.50;9.00
75960;PMS7003;64644;48.914;2.254;2024-03-08T13:49:42;16.00;14.75;10.25
75960;PMS7003;64644;48.914;2.254;2024-03-08T13:52:08;13.00;11.50;8.00